Malaysia Virtual Airlines Airport Information Service

Sydney International Airport

ICAO: YSSY Country: Australia
Latitude: -33.9461 Longitude: 151.177
Latest Arrival : MH123 (WMKK-YSSY) Latest Departure : MHJUMP (YSSY-WMKK)


WX CaptureLIVE
Data provided by noaa.gov | Fetched at 06:11:11

METAR : YSSY 290530Z 07009KT 9999 FEW025 SCT040 BKN110 20/12 Q1018

TAF : YSSY 290505Z 2906/3012 09010KT 9999 SCT030 BECMG 2906/2908 06010KT 9999 SCT030 FM291300 29006KT 9999 BKN025 FM292100 09010KT 9999 BKN020 FM300300 07014KT 9999 BKN025


Runway Data for YSSY
Data provided by openaviationdata.com

Runway ID Mag Var Hdg Length Elevation Surface ILS Freq ILS Id ILS Slope
7 13 61° 8292 ft 21 ft Asphalt 109.9 ISY 3
16L 13 154° 8011 ft 21 ft Asphalt 110.9 ISS 3
16R 13 154° 13022 ft 21 ft Asphalt 109.5 IKS 3
25 13 241° 8292 ft 21 ft Asphalt 109.7 ISW 3
34L 13 334° 13022 ft 21 ft Asphalt 110.1 ISN 3
34R 13 334° 8011 ft 21 ft Asphalt 109.3 IKN 3

Sydney International Airport, Australia
Use only for reference purposes



Not for navigational purposes.